createdAt,value
2022-10-06T00:00:17.338Z,98730.44
2022-10-06T00:03:19.193Z,98754.06
2022-10-06T00:06:20.756Z,98751.66
2022-10-06T00:09:22.303Z,98748.75
2022-10-06T00:12:23.850Z,98752.44
2022-10-06T00:15:26.887Z,98751.38
2022-10-06T00:18:29.934Z,98743.66
2022-10-06T00:21:31.813Z,98758.78
2022-10-06T00:24:33.533Z,98760.09
2022-10-06T00:27:39.557Z,98760.06
2022-10-06T00:30:41.115Z,98762.16
2022-10-06T00:33:42.729Z,98778.84
2022-10-06T00:36:44.309Z,98762.38
2022-10-06T00:39:45.907Z,98783.66
2022-10-06T00:42:54.815Z,98801.19
2022-10-06T00:45:56.387Z,98808.63
2022-10-06T00:49:03.961Z,98819.22
2022-10-06T00:52:06.836Z,98819.22
2022-10-06T00:55:11.431Z,98808.03
2022-10-06T00:58:13.384Z,98836.78
2022-10-06T01:01:14.997Z,98823.25
2022-10-06T01:04:17.841Z,98816.84
2022-10-06T01:07:19.575Z,98838.91
2022-10-06T01:10:21.234Z,98843.13
2022-10-06T01:13:22.838Z,98837.84
2022-10-06T01:16:25.147Z,98847.44
2022-10-06T01:19:26.723Z,98849.06
2022-10-06T01:22:33.102Z,98846.44
2022-10-06T01:25:34.925Z,98857.34
2022-10-06T01:28:37.401Z,98862.13
2022-10-06T01:31:39.092Z,98862.66
2022-10-06T01:34:41.343Z,98869.56
2022-10-06T01:37:42.940Z,98874.06
2022-10-06T01:40:44.887Z,98880.19
2022-10-06T01:43:46.646Z,98880.97
2022-10-06T01:46:48.339Z,98868.78
2022-10-06T01:49:50.019Z,98869.28
2022-10-06T01:52:51.790Z,98877.25
2022-10-06T01:55:57.484Z,98889.50
2022-10-06T01:59:00.171Z,98881.25
2022-10-06T02:02:01.975Z,98877.25
2022-10-06T02:05:03.667Z,98890.81
2022-10-06T02:08:05.762Z,98881.00
2022-10-06T02:11:10.540Z,98885.75
2022-10-06T02:14:18.749Z,98881.50
2022-10-06T02:17:20.384Z,98882.81
2022-10-06T02:20:22.099Z,98878.06
2022-10-06T02:23:28.026Z,98880.72
2022-10-06T02:26:29.698Z,98877.78
2022-10-06T02:29:31.422Z,98880.44
2022-10-06T02:32:37.049Z,98875.38
2022-10-06T02:35:39.027Z,98873.00
2022-10-06T02:38:41.667Z,98879.38
2022-10-06T02:41:44.088Z,98877.25
2022-10-06T02:44:45.718Z,98879.91
2022-10-06T02:47:47.412Z,98873.81
2022-10-06T02:50:54.579Z,98874.88
2022-10-06T02:53:56.272Z,98872.47
2022-10-06T02:56:57.859Z,98878.59
2022-10-06T03:00:00.471Z,98885.75
2022-10-06T03:03:04.996Z,98876.97
2022-10-06T03:06:26.967Z,98886.28
2022-10-06T03:09:44.330Z,98898.72
2022-10-06T03:12:46.035Z,98902.19
2022-10-06T03:15:47.780Z,98904.03
2022-10-06T03:18:50.142Z,98906.69
2022-10-06T03:21:51.818Z,98899.56
2022-10-06T03:24:53.506Z,98905.16
2022-10-06T03:27:56.188Z,98905.94
2022-10-06T03:31:02.813Z,98907.53
2022-10-06T03:34:05.461Z,98910.72
2022-10-06T03:37:07.297Z,98910.22
2022-10-06T03:40:09.283Z,98913.91
2022-10-06T03:43:11.278Z,98916.03
2022-10-06T03:46:14.588Z,98909.91
2022-10-06T03:49:16.330Z,98901.94
2022-10-06T03:52:21.179Z,98904.59
2022-10-06T03:55:25.330Z,98897.97
2022-10-06T03:58:29.945Z,98899.28
2022-10-06T04:01:33.411Z,98886.28
2022-10-06T04:04:38.222Z,98883.91
2022-10-06T04:07:44.871Z,98884.16
2022-10-06T04:10:46.686Z,98884.41
2022-10-06T04:13:52.679Z,98887.31
2022-10-06T04:16:54.289Z,98880.69
2022-10-06T04:20:00.638Z,98891.31
2022-10-06T04:23:02.260Z,98895.31
2022-10-06T04:26:06.490Z,98891.06
2022-10-06T04:29:08.293Z,98892.41
2022-10-06T04:32:09.966Z,98896.91
2022-10-06T04:35:12.293Z,98906.50
2022-10-06T04:38:15.645Z,98907.28
2022-10-06T04:41:18.493Z,98895.34
2022-10-06T04:44:20.306Z,98913.94
2022-10-06T04:47:22.884Z,98913.91
2022-10-06T04:50:25.298Z,98908.06
2022-10-06T04:53:44.149Z,98913.94
2022-10-06T04:56:47.054Z,98919.78
2022-10-06T05:00:14.044Z,98912.03
2022-10-06T05:03:17.450Z,98917.06
2022-10-06T05:06:23.236Z,98918.66
2022-10-06T05:09:24.970Z,98915.50
2022-10-06T05:12:31.134Z,98925.56
2022-10-06T05:15:33.468Z,98913.00
2022-10-06T05:18:35.581Z,98921.75
2022-10-06T05:21:38.362Z,98918.56
2022-10-06T05:24:41.354Z,98931.22
2022-10-06T05:27:43.117Z,98923.13
2022-10-06T05:30:54.321Z,98943.94
2022-10-06T05:33:56.343Z,98929.84
2022-10-06T05:36:58.348Z,98932.25
2022-10-06T05:40:00.068Z,98918.47
2022-10-06T05:43:02.095Z,98920.25
2022-10-06T05:46:05.282Z,98913.00
2022-10-06T05:49:08.077Z,98926.81
2022-10-06T05:52:10.148Z,98924.47
2022-10-06T05:55:11.750Z,98924.78
2022-10-06T05:58:18.318Z,98924.75
2022-10-06T06:01:22.109Z,98921.75
2022-10-06T06:04:24.734Z,98930.53
2022-10-06T06:07:30.020Z,98923.13
2022-10-06T06:10:32.061Z,98925.22
2022-10-06T06:13:34.351Z,98932.44
2022-10-06T06:16:46.507Z,98942.22
2022-10-06T06:19:48.318Z,98935.50
2022-10-06T06:22:53.966Z,98938.97
2022-10-06T06:26:02.956Z,98916.28
2022-10-06T06:29:07.417Z,98910.41
2022-10-06T06:32:14.710Z,98928.75
2022-10-06T06:35:17.673Z,98928.72
2022-10-06T06:38:19.265Z,98940.72
2022-10-06T06:41:21.973Z,98939.56
2022-10-06T06:44:25.858Z,98937.63
2022-10-06T06:47:35.507Z,98947.09
2022-10-06T06:50:38.750Z,98943.81
2022-10-06T06:53:40.621Z,98955.13
2022-10-06T06:56:42.765Z,98965.34
2022-10-06T06:59:45.681Z,98968.75
2022-10-06T07:02:56.191Z,98958.00
2022-10-06T07:06:09.476Z,98965.16
2022-10-06T07:09:11.719Z,98976.63
2022-10-06T07:12:15.234Z,98985.41
2022-10-06T07:15:40.752Z,98987.53
2022-10-06T07:19:01.038Z,99007.22
2022-10-06T07:22:22.198Z,99011.38
2022-10-06T07:25:26.276Z,99002.97
2022-10-06T07:28:34.126Z,99012.78
2022-10-06T07:31:36.511Z,99011.69
2022-10-06T07:37:48.444Z,99026.59
2022-10-06T07:44:19.646Z,99031.19
2022-10-06T07:47:21.846Z,99016.75
2022-10-06T07:50:28.512Z,99027.72
2022-10-06T07:53:30.582Z,99033.06
2022-10-06T07:56:39.097Z,99023.31
2022-10-06T07:59:41.652Z,99018.66
2022-10-06T08:02:43.269Z,99021.69
2022-10-06T08:05:57.062Z,99031.16
2022-10-06T08:09:00.968Z,99031.56
2022-10-06T08:12:22.524Z,99034.94
2022-10-06T08:15:24.106Z,99049.69
2022-10-06T08:18:45.293Z,99041.22
2022-10-06T08:21:47.305Z,99047.97
2022-10-06T08:25:08.622Z,99039.28
2022-10-06T08:28:11.311Z,99066.34
2022-10-06T08:31:15.551Z,99043.63
2022-10-06T08:34:17.225Z,99055.34
2022-10-06T08:37:27.335Z,99049.81
2022-10-06T08:40:29.032Z,99053.94
2022-10-06T08:43:30.589Z,99062.16
2022-10-06T08:46:37.042Z,99069.00
2022-10-06T08:49:39.329Z,99054.22
2022-10-06T08:52:59.721Z,99068.13
2022-10-06T08:56:04.542Z,99060.78
2022-10-06T08:59:07.818Z,99068.44
2022-10-06T09:02:12.861Z,99063.56
2022-10-06T09:05:25.263Z,99070.72
2022-10-06T09:08:32.946Z,99060.53
2022-10-06T09:11:49.857Z,99090.63
2022-10-06T09:14:51.373Z,99094.47
2022-10-06T09:17:55.134Z,99080.13
2022-10-06T09:21:13.719Z,99079.22
2022-10-06T09:24:20.596Z,99094.00
2022-10-06T09:27:24.006Z,99108.91
2022-10-06T09:30:26.209Z,99108.97
2022-10-06T09:33:27.768Z,99130.84
2022-10-06T09:36:29.990Z,99127.88
2022-10-06T09:39:36.966Z,99102.47
2022-10-06T09:42:38.639Z,99140.47
2022-10-06T09:45:40.171Z,99133.84
2022-10-06T09:48:41.743Z,99123.22
2022-10-06T09:51:56.613Z,99137.69
2022-10-06T09:55:10.161Z,99154.41
2022-10-06T09:58:22.266Z,99179.03
2022-10-06T10:01:24.863Z,99151.22
2022-10-06T10:04:30.489Z,99141.38
2022-10-06T10:07:33.206Z,99153.00
2022-10-06T10:10:35.981Z,99159.09
2022-10-06T10:13:43.920Z,99170.00
2022-10-06T10:16:46.844Z,99154.19
2022-10-06T10:19:53.197Z,99157.94
2022-10-06T10:22:58.695Z,99161.09
2022-10-06T10:26:09.578Z,99183.66
2022-10-06T10:29:15.125Z,99183.69
2022-10-06T10:32:18.521Z,99163.78
2022-10-06T10:35:20.146Z,99171.75
2022-10-06T10:38:22.678Z,99199.22
2022-10-06T10:41:32.539Z,99152.84
2022-10-06T10:44:35.140Z,99166.84
2022-10-06T10:47:38.141Z,99161.78
2022-10-06T10:50:39.661Z,99177.03
2022-10-06T10:53:44.036Z,99166.72
2022-10-06T10:56:49.116Z,99198.13
2022-10-06T11:00:00.785Z,99165.84
2022-10-06T11:03:02.730Z,99181.63
2022-10-06T11:06:07.206Z,99165.97
2022-10-06T11:09:13.244Z,99175.94
2022-10-06T11:12:14.786Z,99165.25
2022-10-06T11:15:19.532Z,99201.28
2022-10-06T11:18:28.626Z,99215.63
2022-10-06T11:21:37.006Z,99190.28
2022-10-06T11:24:38.540Z,99150.06
2022-10-06T11:27:42.957Z,99170.63
2022-10-06T11:30:53.557Z,99184.78
2022-10-06T11:33:56.075Z,99180.41
2022-10-06T11:36:57.567Z,99173.22
2022-10-06T11:40:05.402Z,99165.72
2022-10-06T11:43:09.409Z,99168.75
2022-10-06T11:46:14.025Z,99178.94
2022-10-06T11:49:33.537Z,99195.16
2022-10-06T11:52:35.438Z,99139.81
2022-10-06T11:55:37.022Z,99174.94
2022-10-06T11:59:02.737Z,99164.38
2022-10-06T12:02:09.858Z,99147.19
2022-10-06T12:08:41.615Z,99180.03
2022-10-06T12:11:44.633Z,99185.19
2022-10-06T12:17:08.608Z,99178.94
2022-10-06T12:18:47.072Z,99194.63
2022-10-06T12:22:01.032Z,99131.91
2022-10-06T12:25:21.604Z,99162.03
2022-10-06T12:28:36.749Z,99185.09
2022-10-06T12:31:38.352Z,99156.56
2022-10-06T12:34:39.890Z,99138.31
2022-10-06T12:37:43.438Z,99155.56
2022-10-06T12:40:49.048Z,99167.72
2022-10-06T12:43:54.707Z,99184.50
2022-10-06T12:46:56.457Z,99182.50
2022-10-06T12:49:59.762Z,99180.34
2022-10-06T12:53:04.218Z,99149.63
2022-10-06T12:56:06.053Z,99163.03
2022-10-06T12:59:23.986Z,99173.66
2022-10-06T13:02:26.442Z,99167.88
2022-10-06T13:05:28.130Z,99154.16
2022-10-06T13:08:34.018Z,99176.03
2022-10-06T13:11:35.547Z,99170.19
2022-10-06T13:14:37.166Z,99156.06
2022-10-06T13:17:48.838Z,99150.59
2022-10-06T13:20:56.618Z,99179.78
2022-10-06T13:23:58.157Z,99172.84
2022-10-06T13:26:59.774Z,99183.69
2022-10-06T13:30:21.155Z,99162.16
2022-10-06T13:33:22.876Z,99174.97
2022-10-06T13:36:24.558Z,99169.41
2022-10-06T13:39:27.506Z,99182.34
2022-10-06T13:42:29.049Z,99179.34
2022-10-06T13:45:31.940Z,99209.25
2022-10-06T13:48:34.853Z,99176.25
2022-10-06T13:51:36.386Z,99195.13
2022-10-06T13:54:37.980Z,99192.97
2022-10-06T13:57:39.669Z,99177.94
2022-10-06T14:00:51.699Z,99172.09
2022-10-06T14:04:10.825Z,99160.34
2022-10-06T14:07:13.178Z,99173.88
2022-10-06T14:10:18.802Z,99170.19
2022-10-06T14:13:21.438Z,99173.78
2022-10-06T14:16:26.596Z,99166.31
2022-10-06T14:19:32.899Z,99178.25
2022-10-06T14:22:35.365Z,99142.91
2022-10-06T14:25:36.901Z,99158.59
2022-10-06T14:28:39.297Z,99169.13
2022-10-06T14:31:41.088Z,99184.41
2022-10-06T14:34:42.836Z,99161.44
2022-10-06T14:37:44.377Z,99192.44
2022-10-06T14:40:46.842Z,99188.56
2022-10-06T14:43:48.518Z,99168.81
2022-10-06T14:46:50.370Z,99172.13
2022-10-06T14:49:52.874Z,99149.91
2022-10-06T14:52:54.613Z,99157.06
2022-10-06T14:56:03.463Z,99172.06
2022-10-06T14:59:06.396Z,99173.16
2022-10-06T15:02:09.042Z,99176.41
2022-10-06T15:05:10.692Z,99156.31
2022-10-06T15:08:12.289Z,99163.31
2022-10-06T15:11:14.552Z,99154.75
2022-10-06T15:14:16.110Z,99163.38
2022-10-06T15:17:17.820Z,99155.94
2022-10-06T15:20:19.450Z,99148.06
2022-10-06T15:23:21.785Z,99174.16
2022-10-06T15:26:41.710Z,99138.22
2022-10-06T15:29:43.267Z,99136.13
2022-10-06T15:32:44.805Z,99131.28
2022-10-06T15:36:00.818Z,99139.81
2022-10-06T15:39:06.534Z,99113.53
2022-10-06T15:42:08.755Z,99122.66
2022-10-06T15:45:10.586Z,99108.06
2022-10-06T15:48:12.154Z,99124.66
2022-10-06T15:51:14.858Z,99134.25
2022-10-06T15:54:20.994Z,99121.28
2022-10-06T15:57:25.281Z,99131.97
2022-10-06T16:00:26.843Z,99144.91
2022-10-06T16:03:40.938Z,99109.09
2022-10-06T16:06:48.966Z,99114.88
2022-10-06T16:09:51.465Z,99097.19
2022-10-06T16:12:53.011Z,99110.09
2022-10-06T16:15:55.111Z,99104.53
2022-10-06T16:18:56.803Z,99100.47
2022-10-06T16:21:59.329Z,99097.06
2022-10-06T16:25:01.099Z,99097.72
2022-10-06T16:28:02.928Z,99106.16
2022-10-06T16:31:06.146Z,99089.06
2022-10-06T16:34:08.193Z,99079.78
2022-10-06T16:37:09.807Z,99082.38
2022-10-06T16:40:11.446Z,99080.91
2022-10-06T16:43:13.034Z,99078.16
2022-10-06T16:46:24.811Z,99069.28
2022-10-06T16:49:28.332Z,99059.34
2022-10-06T16:52:30.050Z,99058.56
2022-10-06T16:55:31.727Z,99054.00
2022-10-06T16:58:40.378Z,99060.44
2022-10-06T17:01:42.076Z,99071.25
2022-10-06T17:04:43.708Z,99063.50
2022-10-06T17:07:45.288Z,99056.34
2022-10-06T17:10:47.204Z,99060.28
2022-10-06T17:13:49.199Z,99066.09
2022-10-06T17:16:51.528Z,99067.75
2022-10-06T17:19:53.865Z,99067.25
2022-10-06T17:22:55.406Z,99058.94
2022-10-06T17:26:06.257Z,99066.66
2022-10-06T17:29:08.780Z,99070.22
2022-10-06T17:32:12.130Z,99059.59
2022-10-06T17:35:13.681Z,99076.75
2022-10-06T17:38:15.186Z,99069.69
2022-10-06T17:41:20.738Z,99055.75
2022-10-06T17:44:24.114Z,99059.59
2022-10-06T17:47:26.512Z,99064.94
2022-10-06T17:50:28.088Z,99078.03
2022-10-06T17:53:29.688Z,99059.28
2022-10-06T17:56:34.374Z,99064.88
2022-10-06T17:59:35.910Z,99067.53
2022-10-06T18:02:39.891Z,99061.63
2022-10-06T18:05:41.637Z,99059.81
2022-10-06T18:08:43.785Z,99067.53
2022-10-06T18:11:48.550Z,99065.31
2022-10-06T18:14:51.076Z,99049.66
2022-10-06T18:17:52.878Z,99051.97
2022-10-06T18:21:01.604Z,99062.00
2022-10-06T18:24:04.471Z,99076.97
2022-10-06T18:27:07.894Z,99048.53
2022-10-06T18:30:09.821Z,99032.66
2022-10-06T18:36:32.833Z,99039.53
2022-10-06T18:39:34.662Z,99046.97
2022-10-06T18:42:36.185Z,99031.41
2022-10-06T18:45:56.275Z,99032.41
2022-10-06T18:48:59.957Z,99021.50
2022-10-06T18:52:01.702Z,99022.47
2022-10-06T18:55:03.330Z,99035.78
2022-10-06T18:58:05.265Z,99033.31
2022-10-06T19:01:07.226Z,99030.03
2022-10-06T19:04:13.068Z,99029.94
2022-10-06T19:07:14.606Z,99017.44
2022-10-06T19:10:16.216Z,99028.06
2022-10-06T19:13:21.306Z,99033.50
2022-10-06T19:16:22.924Z,99029.75
2022-10-06T19:19:25.977Z,99030.94
2022-10-06T19:22:27.582Z,99028.84
2022-10-06T19:25:29.082Z,99021.41
2022-10-06T19:28:31.896Z,99034.63
2022-10-06T19:31:34.111Z,99024.00
2022-10-06T19:34:36.605Z,99024.06
2022-10-06T19:37:38.165Z,99030.25
2022-10-06T19:40:39.724Z,99011.88
2022-10-06T19:43:41.296Z,99025.38
2022-10-06T19:46:42.936Z,99020.91
2022-10-06T19:49:45.106Z,99009.88
2022-10-06T19:52:46.767Z,99009.41
2022-10-06T19:55:48.526Z,99019.69
2022-10-06T19:58:51.242Z,99004.31
2022-10-06T20:01:53.333Z,99010.09
2022-10-06T20:04:54.944Z,99002.91
2022-10-06T20:07:56.480Z,98987.03
2022-10-06T20:11:01.793Z,98999.94
2022-10-06T20:14:04.240Z,99004.22
2022-10-06T20:17:06.112Z,98996.06
2022-10-06T20:20:07.930Z,99007.41
2022-10-06T20:23:09.501Z,99011.97
2022-10-06T20:26:15.402Z,99003.63
2022-10-06T20:29:18.245Z,98998.88
2022-10-06T20:32:22.797Z,98998.47
2022-10-06T20:35:24.609Z,98985.41
2022-10-06T20:38:46.133Z,98993.13
2022-10-06T20:41:48.411Z,98999.06
2022-10-06T20:44:49.934Z,99004.63
2022-10-06T20:47:51.546Z,98995.03
2022-10-06T20:50:53.360Z,98999.28
2022-10-06T20:53:55.017Z,98975.69
2022-10-06T20:56:56.889Z,98982.63
2022-10-06T20:59:58.471Z,98990.34
2022-10-06T21:03:00.137Z,98973.28
2022-10-06T21:06:02.309Z,98987.78
2022-10-06T21:09:05.720Z,98971.31
2022-10-06T21:12:07.380Z,98964.56
2022-10-06T21:15:10.063Z,98953.25
2022-10-06T21:18:11.780Z,98945.59
2022-10-06T21:21:13.890Z,98935.00
2022-10-06T21:24:15.464Z,98898.91
2022-10-06T21:27:18.402Z,98901.25
2022-10-06T21:30:19.997Z,98904.34
2022-10-06T21:33:25.032Z,98892.63
2022-10-06T21:36:27.623Z,98916.72
2022-10-06T21:39:29.209Z,98932.81
2022-10-06T21:42:31.164Z,98902.66
2022-10-06T21:45:33.258Z,98896.41
2022-10-06T21:48:34.881Z,98908.69
2022-10-06T21:51:36.396Z,98909.22
2022-10-06T21:54:38.200Z,98904.25
2022-10-06T21:57:39.727Z,98904.53
2022-10-06T22:00:41.591Z,98901.84
2022-10-06T22:03:48.696Z,98891.03
2022-10-06T22:06:50.756Z,98897.47
2022-10-06T22:09:52.314Z,98890.88
2022-10-06T22:12:53.906Z,98874.88
2022-10-06T22:15:55.518Z,98880.84
2022-10-06T22:18:57.424Z,98869.50
2022-10-06T22:21:58.961Z,98867.94
2022-10-06T22:25:00.574Z,98861.59
2022-10-06T22:28:02.173Z,98860.13
2022-10-06T22:31:07.853Z,98855.25
2022-10-06T22:34:10.196Z,98848.41
2022-10-06T22:37:11.757Z,98840.06
2022-10-06T22:40:13.299Z,98825.75
2022-10-06T22:43:14.950Z,98841.81
2022-10-06T22:46:16.564Z,98809.41
2022-10-06T22:49:18.172Z,98818.63
2022-10-06T22:52:19.896Z,98806.50
2022-10-06T22:55:26.500Z,98816.09
2022-10-06T22:58:28.525Z,98821.09
2022-10-06T23:01:30.205Z,98799.25
2022-10-06T23:04:31.809Z,98820.91
2022-10-06T23:07:33.567Z,98804.03
2022-10-06T23:10:35.788Z,98817.50
2022-10-06T23:13:37.496Z,98823.66
2022-10-06T23:16:39.143Z,98809.75
2022-10-06T23:19:40.819Z,98813.53
2022-10-06T23:22:42.372Z,98787.34
2022-10-06T23:25:45.429Z,98773.09
2022-10-06T23:28:50.555Z,98767.97
2022-10-06T23:31:52.241Z,98767.97
2022-10-06T23:34:53.833Z,98760.66
2022-10-06T23:37:55.448Z,98759.06
2022-10-06T23:40:57.012Z,98762.63
2022-10-06T23:43:58.726Z,98745.97
2022-10-06T23:47:00.396Z,98740.13
2022-10-06T23:50:01.977Z,98731.31
2022-10-06T23:53:03.660Z,98723.09
2022-10-06T23:56:05.460Z,98720.09
2022-10-06T23:59:07.011Z,98701.97
